createdAt,value
2019-05-02T00:00:14.878Z,34.58
2019-05-02T00:02:44.051Z,33.45
2019-05-02T00:05:13.302Z,32.03
2019-05-02T00:07:43.311Z,34.45
2019-05-02T00:10:15.006Z,34.33
2019-05-02T00:12:45.968Z,33.00
2019-05-02T00:15:18.026Z,34.20
2019-05-02T00:17:46.995Z,34.18
2019-05-02T00:20:21.119Z,34.18
2019-05-02T00:22:51.982Z,34.83
2019-05-02T00:25:18.778Z,37.05
2019-05-02T00:27:47.658Z,36.00
2019-05-02T00:30:17.582Z,33.18
2019-05-02T00:32:46.660Z,34.00
2019-05-02T00:35:15.659Z,36.58
2019-05-02T00:37:44.834Z,35.35
2019-05-02T00:40:13.983Z,37.10
2019-05-02T00:42:42.645Z,35.40
2019-05-02T00:45:13.978Z,38.55
2019-05-02T00:47:47.920Z,41.10
2019-05-02T00:50:14.141Z,38.25
2019-05-02T00:52:42.857Z,37.45
2019-05-02T00:55:11.776Z,37.88
2019-05-02T00:57:40.710Z,37.83
2019-05-02T01:00:13.243Z,37.05
2019-05-02T01:02:45.860Z,37.00
2019-05-02T01:05:14.896Z,36.10
2019-05-02T01:07:43.773Z,36.60
2019-05-02T01:10:16.846Z,37.10
2019-05-02T01:12:44.443Z,37.45
2019-05-02T01:15:14.712Z,36.70
2019-05-02T01:17:43.698Z,40.03
2019-05-02T01:20:12.980Z,38.00
2019-05-02T01:22:41.707Z,37.40
2019-05-02T01:25:15.344Z,40.35
2019-05-02T01:27:43.299Z,37.85
2019-05-02T01:30:30.730Z,36.30
2019-05-02T01:33:01.495Z,39.67
2019-05-02T01:35:49.407Z,38.20
2019-05-02T01:38:19.838Z,39.03
2019-05-02T01:40:53.078Z,38.53
2019-05-02T01:43:24.069Z,38.90
2019-05-02T01:45:53.395Z,36.85
2019-05-02T01:48:22.492Z,40.20
2019-05-02T01:50:51.549Z,40.23
2019-05-02T01:53:20.384Z,39.65
2019-05-02T01:55:52.061Z,39.85
2019-05-02T01:58:21.011Z,41.50
2019-05-02T02:00:50.259Z,42.45
2019-05-02T02:03:19.164Z,41.05
2019-05-02T02:05:47.918Z,38.33
2019-05-02T02:08:16.724Z,41.42
2019-05-02T02:10:45.468Z,42.65
2019-05-02T02:13:14.374Z,42.38
2019-05-02T02:15:43.263Z,42.70
2019-05-02T02:18:13.397Z,42.95
2019-05-02T02:20:45.238Z,41.13
2019-05-02T02:23:18.752Z,44.38
2019-05-02T02:25:49.065Z,44.38
2019-05-02T02:28:17.685Z,45.05
2019-05-02T02:30:46.635Z,45.08
2019-05-02T02:33:15.433Z,44.35
2019-05-02T02:35:50.217Z,45.52
2019-05-02T02:38:14.829Z,44.18
2019-05-02T02:40:43.641Z,44.55
2019-05-02T02:43:31.604Z,46.28
2019-05-02T02:46:02.068Z,48.92
2019-05-02T02:48:33.525Z,46.68
2019-05-02T02:51:02.108Z,48.80
2019-05-02T02:53:31.110Z,46.73
2019-05-02T02:56:05.517Z,46.37
2019-05-02T02:58:44.591Z,47.23
2019-05-02T03:01:05.510Z,46.97
2019-05-02T03:03:35.322Z,46.80
2019-05-02T03:06:07.584Z,46.85
2019-05-02T03:08:44.679Z,45.38
2019-05-02T03:11:06.036Z,50.85
2019-05-02T03:13:52.785Z,49.58
2019-05-02T03:16:20.579Z,48.98
2019-05-02T03:18:49.587Z,48.25
2019-05-02T03:21:20.186Z,45.63
2019-05-02T03:23:49.033Z,44.95
2019-05-02T03:26:17.908Z,47.58
2019-05-02T03:28:57.239Z,51.73
2019-05-02T03:31:29.819Z,48.92
2019-05-02T03:34:00.103Z,49.27
2019-05-02T03:36:28.692Z,48.35
2019-05-02T03:38:49.156Z,47.27
2019-05-02T03:41:20.808Z,45.00
2019-05-02T03:43:49.450Z,48.73
2019-05-02T03:46:20.567Z,45.00
2019-05-02T03:48:49.528Z,48.98
2019-05-02T03:51:21.593Z,46.70
2019-05-02T03:53:49.075Z,47.73
2019-05-02T03:56:18.194Z,47.53
2019-05-02T03:58:48.321Z,48.78
2019-05-02T04:01:19.356Z,43.87
2019-05-02T04:03:48.529Z,46.20
2019-05-02T04:06:21.001Z,50.15
2019-05-02T04:08:58.884Z,46.58
2019-05-02T04:11:23.909Z,48.70
2019-05-02T04:13:54.372Z,50.30
2019-05-02T04:16:24.348Z,49.23
2019-05-02T04:18:55.816Z,48.87
2019-05-02T04:21:26.595Z,47.55
2019-05-02T04:24:07.648Z,50.38
2019-05-02T04:26:29.533Z,48.87
2019-05-02T04:28:59.385Z,52.98
2019-05-02T04:31:31.534Z,52.48
2019-05-02T04:33:59.423Z,53.50
2019-05-02T04:36:28.932Z,51.05
2019-05-02T04:38:59.586Z,48.13
2019-05-02T04:41:31.674Z,48.73
2019-05-02T04:44:01.667Z,49.20
2019-05-02T04:46:31.656Z,44.98
2019-05-02T04:49:01.089Z,51.33
2019-05-02T04:51:32.156Z,51.42
2019-05-02T04:54:01.911Z,49.20
2019-05-02T04:56:31.377Z,48.33
2019-05-02T04:59:01.929Z,52.62
2019-05-02T05:01:42.065Z,49.35
2019-05-02T05:04:03.292Z,52.73
2019-05-02T05:06:32.985Z,52.73
2019-05-02T05:09:04.213Z,48.60
2019-05-02T05:11:33.529Z,48.33
2019-05-02T05:14:02.987Z,46.65
2019-05-02T05:16:32.303Z,50.48
2019-05-02T05:19:01.904Z,48.75
2019-05-02T05:21:31.420Z,48.87
2019-05-02T05:24:02.462Z,50.12
2019-05-02T05:26:39.182Z,52.08
2019-05-02T05:29:08.246Z,52.20
2019-05-02T05:31:38.237Z,48.27
2019-05-02T05:34:09.805Z,47.53
2019-05-02T05:36:38.900Z,48.60
2019-05-02T05:39:11.663Z,50.48
2019-05-02T05:41:42.658Z,48.13
2019-05-02T05:44:10.554Z,50.30
2019-05-02T05:46:42.520Z,49.23
2019-05-02T05:49:18.377Z,51.30
2019-05-02T05:51:42.291Z,47.80
2019-05-02T05:54:11.778Z,49.15
2019-05-02T05:56:43.242Z,48.80
2019-05-02T05:59:12.041Z,50.45
2019-05-02T06:01:41.690Z,52.27
2019-05-02T06:04:13.981Z,51.68
2019-05-02T06:06:42.165Z,52.98
2019-05-02T06:09:13.787Z,53.35
2019-05-02T06:11:42.284Z,55.48
2019-05-02T06:14:11.961Z,54.60
2019-05-02T06:16:41.335Z,57.50
2019-05-02T06:19:13.010Z,55.38
2019-05-02T06:21:45.238Z,54.98
2019-05-02T06:24:15.791Z,59.30
2019-05-02T06:26:49.594Z,57.88
2019-05-02T06:29:18.450Z,57.33
2019-05-02T06:31:46.584Z,56.10
2019-05-02T06:34:16.368Z,57.93
2019-05-02T06:36:45.837Z,57.00
2019-05-02T06:39:15.520Z,58.08
2019-05-02T06:41:45.392Z,58.90
2019-05-02T06:44:18.466Z,57.35
2019-05-02T06:46:46.374Z,58.02
2019-05-02T06:49:16.056Z,56.90
2019-05-02T06:51:45.524Z,58.98
2019-05-02T06:54:17.998Z,57.58
2019-05-02T06:56:47.887Z,58.50
2019-05-02T06:59:18.583Z,57.45
2019-05-02T07:01:52.372Z,64.10
2019-05-02T07:04:22.789Z,60.88
2019-05-02T07:06:58.685Z,63.98
2019-05-02T07:09:21.684Z,64.70
2019-05-02T07:11:57.277Z,61.53
2019-05-02T07:14:23.373Z,63.23
2019-05-02T07:16:57.648Z,60.33
2019-05-02T07:19:29.419Z,59.98
2019-05-02T07:22:04.003Z,60.23
2019-05-02T07:24:31.115Z,56.15
2019-05-02T07:27:02.567Z,56.77
2019-05-02T07:29:32.056Z,57.43
2019-05-02T07:32:01.273Z,57.17
2019-05-02T07:34:30.583Z,57.40
2019-05-02T07:36:59.950Z,58.25
2019-05-02T07:39:29.093Z,58.45
2019-05-02T07:42:00.515Z,57.53
2019-05-02T07:44:32.535Z,59.98
2019-05-02T07:47:02.561Z,59.10
2019-05-02T07:49:32.310Z,60.38
2019-05-02T07:52:01.797Z,57.88
2019-05-02T07:54:30.964Z,58.78
2019-05-02T07:57:02.297Z,58.23
2019-05-02T07:59:30.859Z,55.80
2019-05-02T08:02:00.319Z,57.35
2019-05-02T08:04:29.613Z,54.85
2019-05-02T08:06:59.022Z,55.05
2019-05-02T08:09:27.996Z,55.28
2019-05-02T08:11:57.213Z,57.15
2019-05-02T08:14:29.180Z,55.85
2019-05-02T08:17:05.283Z,55.23
2019-05-02T08:19:27.727Z,55.52
2019-05-02T08:21:57.111Z,58.50
2019-05-02T08:24:26.193Z,59.13
2019-05-02T08:27:00.270Z,56.68
2019-05-02T08:29:30.779Z,57.60
2019-05-02T08:31:59.844Z,59.50
2019-05-02T08:34:32.974Z,59.67
2019-05-02T08:37:03.284Z,58.78
2019-05-02T08:39:33.883Z,58.33
2019-05-02T08:42:04.603Z,56.42
2019-05-02T08:44:33.820Z,58.08
2019-05-02T08:47:02.764Z,57.65
2019-05-02T08:49:31.978Z,58.48
2019-05-02T08:52:01.966Z,57.40
2019-05-02T08:54:32.795Z,59.63
2019-05-02T08:57:02.243Z,65.05
2019-05-02T08:59:31.578Z,58.58
2019-05-02T09:02:01.072Z,54.60
2019-05-02T09:04:30.747Z,55.88
2019-05-02T09:07:00.807Z,52.95
2019-05-02T09:09:30.128Z,52.38
2019-05-02T09:12:09.716Z,53.00
2019-05-02T09:14:32.065Z,49.77
2019-05-02T09:17:08.073Z,50.38
2019-05-02T09:19:34.752Z,53.52
2019-05-02T09:22:07.386Z,49.58
2019-05-02T09:24:33.549Z,49.23
2019-05-02T09:27:02.747Z,53.38
2019-05-02T09:29:32.730Z,51.02
2019-05-02T09:32:02.254Z,52.08
2019-05-02T09:34:31.870Z,50.67
2019-05-02T09:37:02.691Z,46.98
2019-05-02T09:39:36.400Z,48.17
2019-05-02T09:42:06.567Z,48.55
2019-05-02T09:44:34.382Z,45.43
2019-05-02T09:47:03.481Z,42.78
2019-05-02T09:49:32.660Z,45.92
2019-05-02T09:52:03.365Z,46.95
2019-05-02T09:54:37.031Z,46.00
2019-05-02T09:57:03.673Z,47.67
2019-05-02T09:59:33.348Z,47.78
2019-05-02T10:02:03.539Z,46.48
2019-05-02T10:04:32.702Z,44.05
2019-05-02T10:07:02.586Z,43.92
2019-05-02T10:09:32.396Z,42.17
2019-05-02T10:12:02.132Z,47.93
2019-05-02T10:14:33.040Z,44.00
2019-05-02T10:17:06.896Z,43.28
2019-05-02T10:19:33.473Z,42.95
2019-05-02T10:22:02.529Z,42.88
2019-05-02T10:24:32.322Z,44.50
2019-05-02T10:27:06.515Z,44.40
2019-05-02T10:29:33.053Z,46.05
2019-05-02T10:32:02.184Z,42.05
2019-05-02T10:34:32.977Z,42.67
2019-05-02T10:37:03.092Z,37.45
2019-05-02T10:39:34.036Z,32.30
2019-05-02T10:42:03.377Z,38.58
2019-05-02T10:44:36.357Z,38.63
2019-05-02T10:47:03.065Z,38.08
2019-05-02T10:49:40.093Z,31.35
2019-05-02T10:52:09.342Z,39.05
2019-05-02T10:54:38.525Z,36.20
2019-05-02T10:57:07.897Z,39.13
2019-05-02T10:59:37.312Z,41.68
2019-05-02T11:02:26.686Z,36.95
2019-05-02T11:05:02.569Z,34.30
2019-05-02T11:07:32.691Z,31.05
2019-05-02T11:10:05.052Z,33.05
2019-05-02T11:12:41.987Z,33.83
2019-05-02T11:15:07.991Z,35.92
2019-05-02T11:17:38.555Z,33.75
2019-05-02T11:20:09.717Z,38.65
2019-05-02T11:22:38.902Z,33.33
2019-05-02T11:25:08.357Z,34.63
2019-05-02T11:27:37.573Z,34.48
2019-05-02T11:30:09.156Z,33.15
2019-05-02T11:32:38.390Z,36.25
2019-05-02T11:35:08.034Z,34.45
2019-05-02T11:37:37.120Z,33.98
2019-05-02T11:40:09.450Z,30.25
2019-05-02T11:42:38.532Z,31.52
2019-05-02T11:45:08.772Z,37.73
2019-05-02T11:47:37.932Z,37.13
2019-05-02T11:50:07.347Z,35.70
2019-05-02T11:52:37.557Z,35.40
2019-05-02T11:55:07.987Z,35.75
2019-05-02T11:57:37.219Z,34.58
2019-05-02T12:00:09.516Z,35.88
2019-05-02T12:02:41.614Z,34.83
2019-05-02T12:05:18.937Z,33.67
2019-05-02T12:07:48.116Z,36.98
2019-05-02T12:10:17.199Z,36.08
2019-05-02T12:12:46.253Z,36.50
2019-05-02T12:15:15.966Z,37.70
2019-05-02T12:17:45.378Z,38.23
2019-05-02T12:20:14.735Z,35.60
2019-05-02T12:22:44.019Z,36.85
2019-05-02T12:25:13.455Z,37.30
2019-05-02T12:27:42.665Z,37.95
2019-05-02T12:30:12.217Z,37.40
2019-05-02T12:32:42.715Z,39.70
2019-05-02T12:35:12.121Z,37.37
2019-05-02T12:37:42.411Z,38.13
2019-05-02T12:40:12.627Z,39.03
2019-05-02T12:42:42.218Z,38.90
2019-05-02T12:45:12.335Z,37.03
2019-05-02T12:47:42.779Z,37.42
2019-05-02T12:50:12.589Z,36.45
2019-05-02T12:52:42.967Z,32.30
2019-05-02T12:55:12.936Z,32.35
2019-05-02T12:57:43.013Z,33.38
2019-05-02T13:00:13.003Z,33.95
2019-05-02T13:02:46.843Z,31.73
2019-05-02T13:05:16.204Z,32.17
2019-05-02T13:07:50.702Z,33.90
2019-05-02T13:10:18.252Z,34.13
2019-05-02T13:12:47.484Z,32.25
2019-05-02T13:15:17.023Z,31.82
2019-05-02T13:17:48.949Z,29.55
2019-05-02T13:20:22.172Z,29.65
2019-05-02T13:23:06.245Z,27.73
2019-05-02T13:25:37.064Z,27.95
2019-05-02T13:28:06.771Z,26.65
2019-05-02T13:30:42.838Z,26.55
2019-05-02T13:33:13.512Z,25.57
2019-05-02T13:35:44.335Z,25.72
2019-05-02T13:38:15.372Z,23.77
2019-05-02T13:40:44.855Z,22.95
2019-05-02T13:43:14.676Z,21.68
2019-05-02T13:46:04.543Z,20.27
2019-05-02T13:48:34.350Z,16.97
2019-05-02T13:51:04.114Z,17.77
2019-05-02T13:53:33.925Z,19.57
2019-05-02T13:56:23.671Z,20.02
2019-05-02T13:58:53.328Z,19.23
2019-05-02T14:01:23.213Z,18.73
2019-05-02T14:03:55.684Z,18.77
2019-05-02T14:06:29.855Z,18.60
2019-05-02T14:08:56.805Z,19.42
2019-05-02T14:11:44.460Z,17.87
2019-05-02T14:14:14.205Z,19.00
2019-05-02T14:16:43.768Z,20.08
2019-05-02T14:19:13.215Z,19.12
2019-05-02T14:21:42.588Z,17.75
2019-05-02T14:24:11.978Z,19.15
2019-05-02T14:26:43.333Z,18.50
2019-05-02T14:29:16.104Z,18.40
2019-05-02T14:31:43.348Z,16.32
2019-05-02T14:34:25.857Z,16.17
2019-05-02T14:36:59.143Z,14.70
2019-05-02T14:39:26.695Z,14.28
2019-05-02T14:41:56.130Z,14.95
2019-05-02T14:44:36.246Z,15.90
2019-05-02T14:46:57.127Z,16.37
2019-05-02T14:49:26.481Z,17.52
2019-05-02T14:51:57.244Z,17.40
2019-05-02T14:54:26.700Z,18.90
2019-05-02T14:57:02.002Z,19.32
2019-05-02T14:59:32.327Z,19.62
2019-05-02T15:02:07.526Z,19.97
2019-05-02T15:04:38.232Z,19.42
2019-05-02T15:07:05.651Z,19.32
2019-05-02T15:09:36.312Z,20.60
2019-05-02T15:12:13.888Z,21.00
2019-05-02T15:14:37.268Z,21.52
2019-05-02T15:17:07.748Z,19.87
2019-05-02T15:19:37.385Z,20.55
2019-05-02T15:22:06.760Z,21.45
2019-05-02T15:24:38.007Z,20.92
2019-05-02T15:27:12.060Z,22.07
2019-05-02T15:29:38.119Z,22.90
2019-05-02T15:32:09.366Z,22.22
2019-05-02T15:34:55.665Z,21.37
2019-05-02T15:37:25.927Z,22.65
2019-05-02T15:42:26.549Z,21.87
2019-05-02T15:44:57.192Z,21.73
2019-05-02T15:47:27.318Z,22.32
2019-05-02T15:49:56.605Z,21.50
2019-05-02T15:52:32.526Z,21.23
2019-05-02T15:55:04.173Z,21.37
2019-05-02T15:57:37.655Z,20.85
2019-05-02T16:00:05.635Z,21.85
2019-05-02T16:02:35.012Z,21.37
2019-05-02T16:05:06.185Z,20.75
2019-05-02T16:07:38.029Z,21.33
2019-05-02T16:10:09.136Z,19.95
2019-05-02T16:12:38.835Z,22.10
2019-05-02T16:15:13.445Z,21.97
2019-05-02T16:17:39.279Z,23.07
2019-05-02T16:20:13.198Z,23.02
2019-05-02T16:22:46.198Z,24.18
2019-05-02T16:26:08.738Z,23.80
2019-05-02T16:28:41.166Z,24.25
2019-05-02T16:31:09.611Z,24.80
2019-05-02T16:33:39.427Z,24.37
2019-05-02T16:36:08.604Z,24.52
2019-05-02T16:38:38.470Z,23.52
2019-05-02T16:41:09.756Z,24.60
2019-05-02T16:43:39.453Z,22.87
2019-05-02T16:46:11.877Z,21.37
2019-05-02T16:48:42.517Z,19.82
2019-05-02T16:51:27.623Z,19.23
2019-05-02T16:53:42.717Z,18.98
2019-05-02T16:56:12.079Z,16.93
2019-05-02T16:58:45.334Z,16.20
2019-05-02T17:01:14.895Z,16.50
2019-05-02T17:03:43.608Z,18.15
2019-05-02T17:06:16.926Z,17.62
2019-05-02T17:08:49.426Z,18.05
2019-05-02T17:11:34.527Z,18.48
2019-05-02T17:13:59.782Z,17.95
2019-05-02T17:16:29.191Z,16.67
2019-05-02T17:18:58.491Z,15.80
2019-05-02T17:21:33.710Z,17.50
2019-05-02T17:26:28.753Z,15.13
2019-05-02T17:28:58.066Z,15.50
2019-05-02T17:31:27.433Z,15.38
2019-05-02T17:33:56.703Z,15.13
2019-05-02T17:36:28.647Z,14.00
2019-05-02T17:38:59.271Z,14.70
2019-05-02T17:41:28.523Z,14.50
2019-05-02T17:43:59.169Z,14.18
2019-05-02T17:46:28.589Z,14.23
2019-05-02T17:48:58.013Z,14.60
2019-05-02T17:51:33.868Z,13.90
2019-05-02T17:53:59.871Z,14.03
2019-05-02T17:56:29.385Z,13.83
2019-05-02T17:58:58.924Z,14.13
2019-05-02T18:01:33.399Z,16.15
2019-05-02T18:04:02.000Z,15.23
2019-05-02T18:06:35.312Z,15.13
2019-05-02T18:09:02.507Z,15.48
2019-05-02T18:11:36.437Z,15.55
2019-05-02T18:14:10.100Z,15.35
2019-05-02T18:16:34.541Z,16.30
2019-05-02T18:19:04.379Z,17.55
2019-05-02T18:21:34.012Z,17.65
2019-05-02T18:24:06.069Z,18.70
2019-05-02T18:26:34.520Z,17.77
2019-05-02T18:29:06.783Z,18.30
2019-05-02T18:31:40.109Z,17.30
2019-05-02T18:34:06.268Z,19.30
2019-05-02T18:36:35.889Z,17.45
2019-05-02T18:39:07.778Z,15.78
2019-05-02T18:41:41.738Z,15.70
2019-05-02T18:44:08.456Z,13.72
2019-05-02T18:46:41.502Z,13.65
2019-05-02T18:49:09.109Z,12.35
2019-05-02T18:51:38.536Z,12.73
2019-05-02T18:54:08.106Z,12.00
2019-05-02T18:56:42.859Z,12.13
2019-05-02T18:59:08.325Z,12.03
2019-05-02T19:01:37.584Z,13.03
2019-05-02T19:04:07.932Z,12.18
2019-05-02T19:06:37.434Z,12.40
2019-05-02T19:09:09.737Z,12.53
2019-05-02T19:11:38.712Z,12.37
2019-05-02T19:14:07.772Z,12.47
2019-05-02T19:16:36.719Z,11.55
2019-05-02T19:19:05.861Z,11.33
2019-05-02T19:21:37.821Z,11.38
2019-05-02T19:24:05.809Z,11.40
2019-05-02T19:26:34.607Z,11.60
2019-05-02T19:29:08.342Z,10.55
2019-05-02T19:31:42.210Z,10.48
2019-05-02T19:34:07.919Z,9.95
2019-05-02T19:36:36.590Z,8.30
2019-05-02T19:39:09.820Z,8.73
2019-05-02T19:41:38.954Z,8.03
2019-05-02T19:44:08.288Z,6.67
2019-05-02T19:46:38.836Z,7.03
2019-05-02T19:49:12.475Z,7.15
2019-05-02T19:51:38.068Z,7.10
2019-05-02T19:54:07.221Z,6.58
2019-05-02T19:56:45.373Z,6.95
2019-05-02T19:59:06.642Z,6.70
2019-05-02T20:01:35.272Z,6.97
2019-05-02T20:04:06.076Z,6.75
2019-05-02T20:06:34.875Z,6.67
2019-05-02T20:09:08.238Z,6.40
2019-05-02T20:11:35.442Z,6.08
2019-05-02T20:14:09.312Z,5.47
2019-05-02T20:16:44.129Z,5.53
2019-05-02T20:19:12.278Z,5.37
2019-05-02T20:21:43.024Z,5.15
2019-05-02T20:24:17.485Z,4.62
2019-05-02T20:26:46.639Z,4.40
2019-05-02T20:29:12.835Z,4.70
2019-05-02T20:31:41.702Z,4.60
2019-05-02T20:34:11.803Z,4.70
2019-05-02T20:36:42.471Z,4.90
2019-05-02T20:39:11.904Z,4.70
2019-05-02T20:41:41.925Z,4.70
2019-05-02T20:44:12.176Z,4.33
2019-05-02T20:46:42.078Z,4.60
2019-05-02T20:49:12.839Z,4.72
2019-05-02T20:51:42.338Z,4.35
2019-05-02T20:54:12.510Z,3.80
2019-05-02T20:56:42.655Z,3.95
2019-05-02T20:59:12.712Z,4.97
2019-05-02T21:01:42.873Z,4.80
2019-05-02T21:04:12.209Z,4.50
2019-05-02T21:06:46.488Z,4.37
2019-05-02T21:09:16.847Z,4.58
2019-05-02T21:11:47.248Z,4.53
2019-05-02T21:14:16.053Z,4.30
2019-05-02T21:16:44.872Z,4.97
2019-05-02T21:19:13.451Z,5.12
2019-05-02T21:21:42.707Z,4.17
2019-05-02T21:24:11.376Z,4.53
2019-05-02T21:26:42.004Z,4.83
2019-05-02T21:29:12.127Z,5.00
2019-05-02T21:31:42.563Z,4.78
2019-05-02T21:34:11.833Z,4.90
2019-05-02T21:36:42.537Z,5.28
2019-05-02T21:39:14.460Z,5.33
2019-05-02T21:41:43.173Z,5.10
2019-05-02T21:44:13.100Z,4.62
2019-05-02T21:46:42.336Z,4.85
2019-05-02T21:49:13.142Z,5.03
2019-05-02T21:51:52.344Z,4.60
2019-05-02T21:54:31.339Z,4.95
2019-05-02T21:57:02.642Z,5.10
2019-05-02T21:59:31.311Z,4.87
2019-05-02T22:02:02.416Z,5.58
2019-05-02T22:04:31.790Z,5.62
2019-05-02T22:07:00.708Z,5.58
2019-05-02T22:09:29.300Z,5.10
2019-05-02T22:11:58.503Z,5.40
2019-05-02T22:14:27.265Z,5.80
2019-05-02T22:16:56.115Z,5.15
2019-05-02T22:19:24.884Z,5.78
2019-05-02T22:21:54.957Z,5.60
2019-05-02T22:24:23.834Z,5.75
2019-05-02T22:26:52.771Z,6.33
2019-05-02T22:29:21.993Z,6.70
2019-05-02T22:31:54.185Z,6.58
2019-05-02T22:34:22.044Z,6.53
2019-05-02T22:36:53.838Z,7.33
2019-05-02T22:39:35.252Z,6.80
2019-05-02T22:42:04.595Z,6.78
2019-05-02T22:44:33.807Z,7.03
2019-05-02T22:47:02.539Z,7.20
2019-05-02T22:49:31.943Z,7.22
2019-05-02T22:52:01.014Z,7.80
2019-05-02T22:54:33.285Z,8.28
2019-05-02T22:57:00.255Z,7.92
2019-05-02T22:59:31.536Z,7.75
2019-05-02T23:02:01.964Z,8.08
2019-05-02T23:04:32.341Z,9.23
2019-05-02T23:07:02.342Z,8.75
2019-05-02T23:09:31.505Z,10.75
2019-05-02T23:12:02.608Z,11.53
2019-05-02T23:14:32.518Z,11.53
2019-05-02T23:17:02.061Z,13.00
2019-05-02T23:19:31.724Z,13.43
2019-05-02T23:22:02.043Z,13.15
2019-05-02T23:24:47.364Z,14.00
2019-05-02T23:27:27.106Z,12.70
2019-05-02T23:29:55.900Z,12.50
2019-05-02T23:32:24.885Z,12.50
2019-05-02T23:34:53.614Z,13.35
2019-05-02T23:37:22.639Z,13.22
2019-05-02T23:39:52.284Z,13.95
2019-05-02T23:42:21.879Z,13.10
2019-05-02T23:44:51.876Z,14.05
2019-05-02T23:47:22.449Z,14.38
2019-05-02T23:49:53.764Z,14.85
2019-05-02T23:52:22.689Z,15.03
2019-05-02T23:54:52.436Z,16.17
2019-05-02T23:57:22.966Z,15.32
2019-05-02T23:59:51.939Z,15.88
